Time;durP1;ratioP1;P1;durP2;ratioP2;P2;SDS_P1;SDS_P2;PMS_P1;PMS_P2;Temp;Humidity;BMP_temperature;BMP_pressure;BME280_temperature;BME280_humidity;BME280_pressure;Samples;Min_cycle;Max_cycle;Signal;HPM_P1;HPM_P2
2023/06/27 00:02:20;;;;;;;3.05;2.90;;;;;;;;;;4729274;30;20516;-79
2023/06/27 00:04:48;;;;;;;2.97;2.78;;;;;;;;;;4730301;30;20049;-78
2023/06/27 00:07:15;;;;;;;3.10;2.90;;;;;;;;;;4728554;30;20060;-78
2023/06/27 00:09:43;;;;;;;3.40;3.10;;;;;;;;;;4724239;30;20062;-79
2023/06/27 00:12:10;;;;;;;3.25;2.95;;;;;;;;;;4729841;30;20052;-78
2023/06/27 00:14:37;;;;;;;3.20;3.00;;;;;;;;;;4730313;30;20064;-78
2023/06/27 00:17:12;;;;;;;2.92;2.72;;;;;;;;;;4727575;30;20461;-78
2023/06/27 00:19:39;;;;;;;3.13;2.83;;;;;;;;;;4727577;30;20501;-78
2023/06/27 00:22:10;;;;;;;3.28;3.08;;;;;;;;;;4725169;30;20080;-78
2023/06/27 00:24:38;;;;;;;3.20;2.90;;;;;;;;;;4730329;30;20428;-78
2023/06/27 00:27:06;;;;;;;2.53;2.42;;;;;;;;;;4727630;30;20117;-78
2023/06/27 00:29:33;;;;;;;2.70;2.60;;;;;;;;;;4727777;30;20552;-78
2023/06/27 00:32:01;;;;;;;3.15;2.95;;;;;;;;;;4729322;30;20068;-77
2023/06/27 00:34:29;;;;;;;2.90;2.70;;;;;;;;;;4722895;30;20107;-78
2023/06/27 00:36:57;;;;;;;3.30;3.03;;;;;;;;;;4727923;30;20070;-78
2023/06/27 00:39:24;;;;;;;2.70;2.60;;;;;;;;;;4727669;30;20040;-78
2023/06/27 00:41:52;;;;;;;2.90;2.70;;;;;;;;;;4734931;30;20520;-78
2023/06/27 00:44:19;;;;;;;2.95;2.75;;;;;;;;;;4727669;30;20057;-78
2023/06/27 00:46:48;;;;;;;3.30;3.00;;;;;;;;;;4723842;30;20511;-78
2023/06/27 00:49:16;;;;;;;3.60;3.33;;;;;;;;;;4726520;30;20393;-78
2023/06/27 00:51:45;;;;;;;3.78;3.47;;;;;;;;;;4725969;30;20516;-78
2023/06/27 00:54:13;;;;;;;3.78;3.47;;;;;;;;;;4728581;30;20048;-79
2023/06/27 00:56:41;;;;;;;3.75;3.45;;;;;;;;;;4725516;30;20060;-78
2023/06/27 00:59:08;;;;;;;3.90;3.60;;;;;;;;;;4737757;30;20135;-79
2023/06/27 01:01:38;;;;;;;3.72;3.53;;;;;;;;;;4725475;30;20110;-79
2023/06/27 01:04:05;;;;;;;3.75;3.42;;;;;;;;;;4749634;24;20060;-86
2023/06/27 01:06:45;;;;;;;3.35;3.15;;;;;;;;;;4734815;30;20065;-86
2023/06/27 01:09:17;;;;;;;3.15;2.83;;;;;;;;;;4740821;30;20053;-87
2023/06/27 01:11:46;;;;;;;3.45;3.03;;;;;;;;;;4737335;30;20113;-86
2023/06/27 01:14:19;;;;;;;2.80;2.60;;;;;;;;;;4736494;30;20052;-85
2023/06/27 01:16:47;;;;;;;3.25;3.05;;;;;;;;;;4730623;30;20056;-85
2023/06/27 01:19:17;;;;;;;2.88;2.63;;;;;;;;;;4730345;30;20060;-86
2023/06/27 01:21:46;;;;;;;3.70;3.40;;;;;;;;;;4737331;30;20135;-84
2023/06/27 01:24:15;;;;;;;3.38;3.05;;;;;;;;;;4735805;30;20063;-86
2023/06/27 01:26:42;;;;;;;2.95;2.72;;;;;;;;;;4741271;30;20102;-87
2023/06/27 01:29:11;;;;;;;3.20;2.90;;;;;;;;;;4735316;30;20043;-86
2023/06/27 01:31:39;;;;;;;3.00;2.80;;;;;;;;;;4733866;30;20052;-86
2023/06/27 01:34:18;;;;;;;2.47;2.38;;;;;;;;;;4731686;30;20048;-87
2023/06/27 01:37:03;;;;;;;2.70;2.60;;;;;;;;;;4735293;30;20148;-85
2023/06/27 01:39:44;;;;;;;2.88;2.67;;;;;;;;;;4739463;30;20071;-86
2023/06/27 01:42:16;;;;;;;2.50;2.30;;;;;;;;;;4728367;30;20055;-86
2023/06/27 01:44:43;;;;;;;;;;;;;;;;;;4733137;30;20570;-86
2023/06/27 01:47:11;;;;;;;2.83;2.63;;;;;;;;;;4731802;30;20681;-89
2023/06/27 01:49:39;;;;;;;2.38;2.28;;;;;;;;;;4729941;30;20057;-85
2023/06/27 01:52:07;;;;;;;2.00;1.90;;;;;;;;;;4727738;30;20052;-85
2023/06/27 01:54:34;;;;;;;2.22;2.13;;;;;;;;;;4728104;30;20108;-85
2023/06/27 01:57:02;;;;;;;2.15;2.05;;;;;;;;;;4734740;30;20135;-86
2023/06/27 01:59:30;;;;;;;2.58;2.38;;;;;;;;;;4734347;30;20059;-86
2023/06/27 02:01:57;;;;;;;2.28;2.13;;;;;;;;;;4735205;30;20131;-86
2023/06/27 02:04:25;;;;;;;2.35;2.15;;;;;;;;;;4745919;30;20052;-86
2023/06/27 02:06:52;;;;;;;1.80;1.70;;;;;;;;;;4732628;30;20056;-87
2023/06/27 02:09:19;;;;;;;2.00;1.90;;;;;;;;;;4735609;30;20059;-85
2023/06/27 02:11:47;;;;;;;2.05;1.95;;;;;;;;;;4738277;30;20500;-86
2023/06/27 02:14:14;;;;;;;1.85;1.70;;;;;;;;;;4728712;30;20048;-86
2023/06/27 02:16:42;;;;;;;2.13;2.03;;;;;;;;;;4734316;30;20059;-88
2023/06/27 02:19:09;;;;;;;1.70;1.60;;;;;;;;;;4736800;30;20055;-86
2023/06/27 02:21:37;;;;;;;2.13;2.03;;;;;;;;;;4730097;30;20127;-87
2023/06/27 02:24:05;;;;;;;1.77;1.67;;;;;;;;;;4744970;30;20497;-86
2023/06/27 02:26:32;;;;;;;2.00;1.90;;;;;;;;;;4729284;30;20226;-86
2023/06/27 02:29:00;;;;;;;1.90;1.80;;;;;;;;;;4727849;30;20129;-85
2023/06/27 02:31:27;;;;;;;1.92;1.83;;;;;;;;;;4733689;30;20053;-86
2023/06/27 02:33:56;;;;;;;1.80;1.70;;;;;;;;;;4726714;30;20543;-86
2023/06/27 02:36:27;;;;;;;2.13;2.03;;;;;;;;;;4726606;30;20052;-86
2023/06/27 02:38:56;;;;;;;2.05;1.85;;;;;;;;;;4736040;30;20114;-86
2023/06/27 02:41:24;;;;;;;2.33;2.03;;;;;;;;;;4732033;30;20538;-87
2023/06/27 02:43:52;;;;;;;2.45;2.10;;;;;;;;;;4729855;30;20534;-86
2023/06/27 02:46:19;;;;;;;1.80;1.70;;;;;;;;;;4744377;30;20056;-85
2023/06/27 02:48:47;;;;;;;1.77;1.67;;;;;;;;;;4732904;30;20159;-83
2023/06/27 02:51:14;;;;;;;2.05;1.85;;;;;;;;;;4735428;30;20087;-86
2023/06/27 02:53:41;;;;;;;1.33;1.33;;;;;;;;;;4727494;30;20080;-86
2023/06/27 02:56:09;;;;;;;1.60;1.50;;;;;;;;;;4730110;30;20836;-86
2023/06/27 02:58:39;;;;;;;1.60;1.48;;;;;;;;;;4732742;30;20053;-86
2023/06/27 03:01:07;;;;;;;2.40;1.52;;;;;;;;;;4729058;30;20044;-86
2023/06/27 03:03:38;;;;;;;;;;;;;;;;;;4734100;30;20049;-87
2023/06/27 03:06:08;;;;;;;1.73;1.63;;;;;;;;;;4734520;30;19930;-86
2023/06/27 03:08:40;;;;;;;1.63;1.50;;;;;;;;;;4736189;30;20076;-85
2023/06/27 03:11:07;;;;;;;2.10;1.80;;;;;;;;;;4742824;30;20480;-86
2023/06/27 03:13:35;;;;;;;2.33;1.80;;;;;;;;;;4740056;30;20130;-84
2023/06/27 03:16:04;;;;;;;2.00;1.40;;;;;;;;;;4743947;30;20052;-85
2023/06/27 03:18:33;;;;;;;1.88;1.77;;;;;;;;;;4735745;30;20052;-86
2023/06/27 03:21:00;;;;;;;1.73;1.63;;;;;;;;;;4756796;30;20056;-86
2023/06/27 03:23:28;;;;;;;2.35;1.70;;;;;;;;;;4736004;30;20102;-86
2023/06/27 03:25:56;;;;;;;1.60;1.50;;;;;;;;;;4745976;30;20055;-85
2023/06/27 03:28:23;;;;;;;1.63;1.52;;;;;;;;;;4736375;30;20052;-85
2023/06/27 03:30:53;;;;;;;1.92;1.83;;;;;;;;;;4747333;30;20083;-88
2023/06/27 03:33:21;;;;;;;1.50;1.40;;;;;;;;;;4741052;30;20072;-87
2023/06/27 03:35:52;;;;;;;2.55;2.05;;;;;;;;;;4733968;30;20063;-87
2023/06/27 03:38:20;;;;;;;1.75;1.65;;;;;;;;;;4739024;30;20602;-88
2023/06/27 03:40:47;;;;;;;1.65;1.55;;;;;;;;;;4737349;30;20053;-85
2023/06/27 03:43:15;;;;;;;1.70;1.60;;;;;;;;;;4739451;30;20044;-89
2023/06/27 03:45:43;;;;;;;1.88;1.77;;;;;;;;;;4737397;30;20053;-85
2023/06/27 03:48:10;;;;;;;2.25;1.70;;;;;;;;;;4743098;30;20061;-88
2023/06/27 03:50:38;;;;;;;1.52;1.52;;;;;;;;;;4737433;30;20052;-85
2023/06/27 03:53:06;;;;;;;2.13;2.00;;;;;;;;;;4739085;30;20130;-87
2023/06/27 03:55:33;;;;;;;1.67;1.58;;;;;;;;;;4746267;30;20064;-86
2023/06/27 03:58:02;;;;;;;1.67;1.58;;;;;;;;;;4742893;30;20467;-85
2023/06/27 04:00:29;;;;;;;1.80;1.70;;;;;;;;;;4738625;30;20113;-87
2023/06/27 04:02:57;;;;;;;1.60;1.50;;;;;;;;;;4748325;30;20052;-85
2023/06/27 04:05:25;;;;;;;1.67;1.58;;;;;;;;;;4737461;30;20143;-86
2023/06/27 04:07:52;;;;;;;2.72;1.70;;;;;;;;;;4740052;30;20063;-85
2023/06/27 04:10:19;;;;;;;1.80;1.70;;;;;;;;;;4730829;30;20143;-87
2023/06/27 04:12:47;;;;;;;1.50;1.42;;;;;;;;;;4740754;30;20048;-86
2023/06/27 04:15:14;;;;;;;1.67;1.52;;;;;;;;;;4739580;30;20147;-86
2023/06/27 04:17:41;;;;;;;1.60;1.50;;;;;;;;;;4741697;30;20129;-86
2023/06/27 04:20:09;;;;;;;3.45;1.40;;;;;;;;;;4747044;30;20052;-87
2023/06/27 04:22:36;;;;;;;1.52;1.42;;;;;;;;;;4742998;30;20603;-85
2023/06/27 04:25:04;;;;;;;1.75;1.38;;;;;;;;;;4737163;30;20044;-86
2023/06/27 04:27:32;;;;;;;1.50;1.40;;;;;;;;;;4734345;30;20053;-86
2023/06/27 04:29:59;;;;;;;1.50;1.40;;;;;;;;;;4742932;30;20059;-86
2023/06/27 04:32:26;;;;;;;1.88;1.70;;;;;;;;;;4740313;30;20074;-87
2023/06/27 04:34:57;;;;;;;1.92;1.80;;;;;;;;;;4736252;30;20053;-86
2023/06/27 04:37:25;;;;;;;2.33;1.58;;;;;;;;;;4740042;30;20139;-85
2023/06/27 04:39:53;;;;;;;3.13;1.70;;;;;;;;;;4743497;30;20052;-84
2023/06/27 04:42:20;;;;;;;1.45;1.35;;;;;;;;;;4738710;30;20063;-84
2023/06/27 04:44:50;;;;;;;1.63;1.55;;;;;;;;;;4739676;30;20080;-84
2023/06/27 04:47:18;;;;;;;1.98;1.85;;;;;;;;;;4740626;30;20424;-84
2023/06/27 04:49:46;;;;;;;1.45;1.42;;;;;;;;;;4737465;30;20055;-84
2023/06/27 04:52:14;;;;;;;1.35;1.25;;;;;;;;;;4736693;30;20155;-83
2023/06/27 04:54:41;;;;;;;2.40;1.63;;;;;;;;;;4737515;30;20060;-83
2023/06/27 04:57:08;;;;;;;1.65;1.55;;;;;;;;;;4737515;30;20056;-83
2023/06/27 04:59:39;;;;;;;1.73;1.63;;;;;;;;;;4727080;30;20123;-83
2023/06/27 05:02:07;;;;;;;1.40;1.40;;;;;;;;;;4725080;30;20050;-84
2023/06/27 05:04:35;;;;;;;2.15;1.45;;;;;;;;;;4725397;30;20412;-83
2023/06/27 05:07:04;;;;;;;1.85;1.65;;;;;;;;;;4724879;30;20136;-82
2023/06/27 05:09:32;;;;;;;1.88;1.70;;;;;;;;;;4741940;30;20060;-84
2023/06/27 05:11:59;;;;;;;1.65;1.55;;;;;;;;;;4748306;30;20064;-82
2023/06/27 05:14:27;;;;;;;1.73;1.63;;;;;;;;;;4739871;30;20053;-83
2023/06/27 05:16:55;;;;;;;1.25;1.20;;;;;;;;;;4736889;30;20101;-82
2023/06/27 05:19:22;;;;;;;2.10;1.40;;;;;;;;;;4742626;30;20640;-83
2023/06/27 05:21:49;;;;;;;1.80;1.70;;;;;;;;;;4740549;30;20075;-84
2023/06/27 05:24:17;;;;;;;1.83;1.60;;;;;;;;;;4735819;30;20056;-84
2023/06/27 05:26:44;;;;;;;1.73;1.63;;;;;;;;;;4738813;30;20049;-83
2023/06/27 05:29:12;;;;;;;1.50;1.40;;;;;;;;;;4741673;30;20080;-85
2023/06/27 05:31:40;;;;;;;1.60;1.55;;;;;;;;;;4741670;30;20056;-82
2023/06/27 05:34:08;;;;;;;1.65;1.50;;;;;;;;;;4741915;30;20068;-84
2023/06/27 05:36:40;;;;;;;1.70;1.60;;;;;;;;;;4740174;30;20060;-82
2023/06/27 05:39:07;;;;;;;2.03;1.60;;;;;;;;;;4740273;30;20056;-83
2023/06/27 05:41:35;;;;;;;11.25;10.32;;;;;;;;;;4731828;30;20060;-83
2023/06/27 05:44:02;;;;;;;9.98;8.95;;;;;;;;;;4729713;30;20520;-83
2023/06/27 05:46:34;;;;;;;3.13;2.90;;;;;;;;;;4730729;30;20048;-85
2023/06/27 05:49:02;;;;;;;2.72;1.98;;;;;;;;;;4730950;30;20119;-83
2023/06/27 05:51:30;;;;;;;1.80;1.70;;;;;;;;;;4734386;30;20061;-84
2023/06/27 05:53:57;;;;;;;1.98;1.75;;;;;;;;;;4740838;30;20064;-84
2023/06/27 05:56:24;;;;;;;1.70;1.60;;;;;;;;;;4732134;30;20427;-85
2023/06/27 05:58:51;;;;;;;4.75;2.22;;;;;;;;;;4730833;30;20132;-85
2023/06/27 06:01:19;;;;;;;2.55;1.83;;;;;;;;;;4729748;30;20045;-84
2023/06/27 06:03:48;;;;;;;2.17;1.70;;;;;;;;;;4729814;30;20135;-85
2023/06/27 06:06:16;;;;;;;1.85;1.75;;;;;;;;;;4730450;30;20056;-84
2023/06/27 06:08:43;;;;;;;2.88;1.50;;;;;;;;;;4729400;30;20056;-84
2023/06/27 06:11:10;;;;;;;1.50;1.40;;;;;;;;;;4729919;30;20048;-85
2023/06/27 06:13:38;;;;;;;3.30;1.52;;;;;;;;;;4729000;30;20060;-85
2023/06/27 06:16:05;;;;;;;1.40;1.33;;;;;;;;;;4729689;30;20472;-86
2023/06/27 06:18:33;;;;;;;1.88;1.63;;;;;;;;;;4730998;30;20059;-85
2023/06/27 06:21:00;;;;;;;1.45;1.30;;;;;;;;;;4729290;30;20052;-84
2023/06/27 06:23:27;;;;;;;4.80;1.55;;;;;;;;;;4729693;30;20049;-84
2023/06/27 06:25:54;;;;;;;1.58;1.48;;;;;;;;;;4729552;30;20139;-84
2023/06/27 06:28:22;;;;;;;1.52;1.42;;;;;;;;;;4728720;30;20052;-85
2023/06/27 06:30:49;;;;;;;1.60;1.50;;;;;;;;;;4729528;30;20091;-84
2023/06/27 06:33:16;;;;;;;1.58;1.48;;;;;;;;;;4729411;30;20084;-85
2023/06/27 06:35:44;;;;;;;1.58;1.48;;;;;;;;;;4728825;30;20060;-85
2023/06/27 06:38:11;;;;;;;1.40;1.30;;;;;;;;;;4730487;30;20520;-84
2023/06/27 06:40:38;;;;;;;1.40;1.30;;;;;;;;;;4728902;30;20077;-84
2023/06/27 06:43:06;;;;;;;2.40;1.50;;;;;;;;;;4728938;30;20436;-84
2023/06/27 06:45:33;;;;;;;1.95;1.15;;;;;;;;;;4729986;30;20127;-84
2023/06/27 06:48:00;;;;;;;1.23;1.17;;;;;;;;;;4731664;30;20064;-84
2023/06/27 06:50:30;;;;;;;4.85;1.42;;;;;;;;;;4731690;30;20448;-83
2023/06/27 06:52:58;;;;;;;1.50;1.40;;;;;;;;;;4728526;30;20713;-86
2023/06/27 06:55:25;;;;;;;2.95;1.40;;;;;;;;;;4729657;30;20060;-83
2023/06/27 06:57:53;;;;;;;3.28;1.50;;;;;;;;;;4729907;30;20065;-84
2023/06/27 07:00:20;;;;;;;1.13;1.10;;;;;;;;;;4730660;30;20424;-85
2023/06/27 07:02:48;;;;;;;1.45;1.30;;;;;;;;;;4776484;24;20098;-77
2023/06/27 07:05:15;;;;;;;1.33;1.20;;;;;;;;;;4755425;24;20060;-77
2023/06/27 07:07:43;;;;;;;1.70;1.40;;;;;;;;;;4744918;30;20052;-77
2023/06/27 07:10:10;;;;;;;1.10;1.00;;;;;;;;;;4743312;30;20145;-76
2023/06/27 07:12:38;;;;;;;1.30;1.20;;;;;;;;;;4727753;30;20064;-77
2023/06/27 07:15:05;;;;;;;1.30;1.20;;;;;;;;;;4727060;30;20386;-77
2023/06/27 07:17:33;;;;;;;2.65;1.20;;;;;;;;;;4728996;30;20052;-77
2023/06/27 07:20:01;;;;;;;1.20;1.20;;;;;;;;;;4730162;30;20059;-76
2023/06/27 07:22:28;;;;;;;1.30;1.10;;;;;;;;;;4734122;30;20495;-78
2023/06/27 07:24:56;;;;;;;1.40;1.40;;;;;;;;;;4743314;30;20886;-77
2023/06/27 07:27:23;;;;;;;1.20;1.10;;;;;;;;;;4728455;30;20049;-77
2023/06/27 07:29:50;;;;;;;1.00;1.00;;;;;;;;;;4730919;30;20560;-76
2023/06/27 07:32:18;;;;;;;1.75;1.65;;;;;;;;;;4726862;30;20064;-77
2023/06/27 07:34:45;;;;;;;2.10;1.83;;;;;;;;;;4730440;30;20056;-76
2023/06/27 07:37:13;;;;;;;1.60;1.50;;;;;;;;;;4729848;30;20059;-77
2023/06/27 07:39:41;;;;;;;1.40;1.30;;;;;;;;;;4725276;30;20260;-77
2023/06/27 07:42:09;;;;;;;2.10;1.00;;;;;;;;;;4732210;30;20067;-77
2023/06/27 07:44:36;;;;;;;1.40;1.30;;;;;;;;;;4724083;30;20060;-77
2023/06/27 07:47:04;;;;;;;3.33;1.10;;;;;;;;;;4728838;30;20079;-78
2023/06/27 07:49:32;;;;;;;0.98;0.98;;;;;;;;;;4727808;30;20135;-77
2023/06/27 07:52:07;;;;;;;1.40;1.30;;;;;;;;;;4720324;30;20463;-78
2023/06/27 07:54:35;;;;;;;1.13;1.00;;;;;;;;;;4728580;30;20491;-78
2023/06/27 07:57:03;;;;;;;1.63;1.23;;;;;;;;;;4730367;30;20103;-78
2023/06/27 07:59:30;;;;;;;1.45;1.30;;;;;;;;;;4728313;30;20401;-78
2023/06/27 08:01:57;;;;;;;1.10;1.10;;;;;;;;;;4727555;30;20060;-78
2023/06/27 08:04:25;;;;;;;1.30;1.20;;;;;;;;;;4728691;30;20048;-78
2023/06/27 08:06:53;;;;;;;1.95;1.20;;;;;;;;;;4727768;30;20073;-78
2023/06/27 08:09:21;;;;;;;1.45;1.30;;;;;;;;;;4727936;30;20656;-78
2023/06/27 08:11:48;;;;;;;1.08;1.00;;;;;;;;;;4729275;30;20060;-78
2023/06/27 08:14:16;;;;;;;1.23;1.10;;;;;;;;;;4729043;30;20056;-78
2023/06/27 08:16:43;;;;;;;1.45;1.20;;;;;;;;;;4729968;30;20822;-78
2023/06/27 08:19:11;;;;;;;1.90;0.90;;;;;;;;;;4730038;30;20060;-78
2023/06/27 08:21:38;;;;;;;1.30;1.20;;;;;;;;;;4728609;30;20492;-78
2023/06/27 08:24:09;;;;;;;1.58;1.20;;;;;;;;;;4721349;30;20056;-77
2023/06/27 08:26:40;;;;;;;1.23;1.00;;;;;;;;;;4728931;30;20051;-78
2023/06/27 08:29:08;;;;;;;0.80;0.80;;;;;;;;;;4728549;30;20307;-78
2023/06/27 08:31:35;;;;;;;1.02;1.00;;;;;;;;;;4729776;30;20112;-78
2023/06/27 08:34:03;;;;;;;1.50;1.10;;;;;;;;;;4728382;30;20081;-78
2023/06/27 08:36:30;;;;;;;0.80;0.80;;;;;;;;;;4727471;30;20056;-78
2023/06/27 08:38:58;;;;;;;1.67;1.00;;;;;;;;;;4727483;30;20052;-78
2023/06/27 08:41:25;;;;;;;1.00;1.00;;;;;;;;;;4726205;30;20052;-78
2023/06/27 08:43:53;;;;;;;0.82;0.82;;;;;;;;;;4726184;30;20483;-77
2023/06/27 08:46:23;;;;;;;1.10;1.00;;;;;;;;;;4728446;30;20484;-78
2023/06/27 08:48:53;;;;;;;1.33;1.10;;;;;;;;;;4727517;30;20079;-78
2023/06/27 08:51:21;;;;;;;1.42;1.15;;;;;;;;;;4729500;30;20055;-78
2023/06/27 08:53:50;;;;;;;2.17;1.00;;;;;;;;;;4727066;30;20056;-79
2023/06/27 08:56:18;;;;;;;0.90;0.90;;;;;;;;;;4728307;30;20053;-78
2023/06/27 08:58:46;;;;;;;2.22;1.20;;;;;;;;;;4729389;30;20064;-78
2023/06/27 09:01:14;;;;;;;2.25;1.00;;;;;;;;;;4725971;30;20415;-78
2023/06/27 09:03:41;;;;;;;1.02;1.00;;;;;;;;;;4729669;30;20095;-79
2023/06/27 09:06:09;;;;;;;1.05;0.98;;;;;;;;;;4730076;30;20048;-78
2023/06/27 09:08:36;;;;;;;0.98;0.98;;;;;;;;;;4734423;30;20084;-78
2023/06/27 09:11:08;;;;;;;2.35;0.88;;;;;;;;;;4728614;30;20153;-78
2023/06/27 09:13:37;;;;;;;1.60;1.20;;;;;;;;;;4724985;30;20060;-79
2023/06/27 09:16:08;;;;;;;1.13;1.02;;;;;;;;;;4724352;30;20065;-78
2023/06/27 09:18:36;;;;;;;0.90;0.90;;;;;;;;;;4729346;30;20764;-78
2023/06/27 09:21:04;;;;;;;1.10;0.70;;;;;;;;;;4726857;30;20076;-79
2023/06/27 09:23:32;;;;;;;0.80;0.80;;;;;;;;;;4720080;30;20053;-78
2023/06/27 09:26:12;;;;;;;0.85;0.85;;;;;;;;;;4727079;30;20049;-78
2023/06/27 09:28:50;;;;;;;1.63;1.17;;;;;;;;;;4728875;30;20064;-79
2023/06/27 09:31:19;;;;;;;0.95;0.95;;;;;;;;;;4728077;30;20457;-79
2023/06/27 09:33:48;;;;;;;1.40;1.02;;;;;;;;;;4724156;30;20060;-78
2023/06/27 09:36:32;;;;;;;0.73;0.68;;;;;;;;;;4731425;30;20135;-78
2023/06/27 09:39:03;;;;;;;1.45;1.23;;;;;;;;;;4727792;30;20053;-78
2023/06/27 09:41:44;;;;;;;1.27;1.15;;;;;;;;;;4712992;30;20139;-78
2023/06/27 09:44:13;;;;;;;0.60;0.60;;;;;;;;;;4727494;30;20492;-78
2023/06/27 09:46:42;;;;;;;1.30;0.98;;;;;;;;;;4727474;30;20070;-78
2023/06/27 09:49:09;;;;;;;1.27;0.73;;;;;;;;;;4725244;30;20037;-78
2023/06/27 09:51:38;;;;;;;1.38;1.02;;;;;;;;;;4726226;30;20471;-78
2023/06/27 09:54:06;;;;;;;0.82;0.82;;;;;;;;;;4726280;30;20052;-78
2023/06/27 09:56:34;;;;;;;1.20;0.90;;;;;;;;;;4725053;30;20063;-78
2023/06/27 09:59:08;;;;;;;0.63;0.63;;;;;;;;;;4728197;30;20057;-78
2023/06/27 10:01:56;;;;;;;0.90;0.80;;;;;;;;;;4724488;30;20497;-78
2023/06/27 10:04:24;;;;;;;2.30;0.80;;;;;;;;;;4727848;30;20582;-79
2023/06/27 10:06:54;;;;;;;1.42;0.98;;;;;;;;;;4724937;30;20053;-77
2023/06/27 10:09:22;;;;;;;1.17;0.85;;;;;;;;;;4725659;30;20103;-78
2023/06/27 10:11:50;;;;;;;0.90;0.90;;;;;;;;;;4729372;30;20060;-78
2023/06/27 10:14:20;;;;;;;0.80;0.80;;;;;;;;;;4727363;30;20057;-78
2023/06/27 10:16:48;;;;;;;0.88;0.80;;;;;;;;;;4726957;30;20586;-78
2023/06/27 10:19:16;;;;;;;1.17;1.17;;;;;;;;;;4730005;30;20136;-78
2023/06/27 10:21:43;;;;;;;1.00;0.90;;;;;;;;;;4729591;30;20092;-78
2023/06/27 10:24:10;;;;;;;2.63;1.00;;;;;;;;;;4729231;30;20060;-79
2023/06/27 10:26:39;;;;;;;0.90;0.90;;;;;;;;;;4725266;30;20111;-79
2023/06/27 10:29:16;;;;;;;0.80;0.80;;;;;;;;;;4727201;30;20118;-78
2023/06/27 10:31:49;;;;;;;0.80;0.80;;;;;;;;;;4720623;30;20080;-79
2023/06/27 10:34:18;;;;;;;0.98;0.98;;;;;;;;;;4721139;30;20053;-78
2023/06/27 10:36:57;;;;;;;2.40;1.00;;;;;;;;;;4726614;30;20140;-77
2023/06/27 10:39:34;;;;;;;0.70;0.70;;;;;;;;;;4727394;30;20041;-79
2023/06/27 10:42:02;;;;;;;1.80;0.75;;;;;;;;;;4730023;30;20060;-78
2023/06/27 10:44:30;;;;;;;0.80;0.80;;;;;;;;;;4717038;30;20576;-79
2023/06/27 10:47:15;;;;;;;0.80;0.80;;;;;;;;;;4727945;30;20065;-78
2023/06/27 10:49:46;;;;;;;1.20;0.80;;;;;;;;;;4727729;30;20068;-77
2023/06/27 10:52:20;;;;;;;0.83;0.83;;;;;;;;;;4726800;30;20063;-78
2023/06/27 10:55:11;;;;;;;0.70;0.70;;;;;;;;;;4727367;30;20319;-78
2023/06/27 10:57:38;;;;;;;2.15;0.80;;;;;;;;;;4724243;30;20145;-77
2023/06/27 11:00:22;;;;;;;0.90;0.90;;;;;;;;;;4727545;30;20064;-78
2023/06/27 11:02:54;;;;;;;3.25;1.20;;;;;;;;;;4727056;30;20065;-78
2023/06/27 11:05:23;;;;;;;;;;;;;;;;;;4727438;30;20052;-78
2023/06/27 11:07:55;;;;;;;0.80;0.80;;;;;;;;;;4731759;30;19934;-79
2023/06/27 11:10:23;;;;;;;2.40;1.08;;;;;;;;;;4723651;30;20504;-79
2023/06/27 11:12:51;;;;;;;2.10;0.82;;;;;;;;;;4726182;30;20475;-78
2023/06/27 11:15:19;;;;;;;0.98;0.70;;;;;;;;;;4723801;30;20428;-79
2023/06/27 11:17:47;;;;;;;0.95;0.82;;;;;;;;;;4726579;30;20059;-78
2023/06/27 11:20:16;;;;;;;2.08;1.02;;;;;;;;;;4726936;30;20045;-77
2023/06/27 11:22:45;;;;;;;1.02;0.80;;;;;;;;;;4727195;30;20528;-78
2023/06/27 11:25:14;;;;;;;1.05;0.60;;;;;;;;;;4725961;30;20616;-78
2023/06/27 11:27:41;;;;;;;0.77;0.70;;;;;;;;;;4728017;30;20087;-78
2023/06/27 11:30:09;;;;;;;0.73;0.73;;;;;;;;;;4731679;30;20091;-77
2023/06/27 11:32:36;;;;;;;2.70;0.80;;;;;;;;;;4746130;30;20076;-77
2023/06/27 11:35:06;;;;;;;1.13;0.90;;;;;;;;;;4735076;30;20067;-77
2023/06/27 11:37:34;;;;;;;0.68;0.68;;;;;;;;;;4733729;30;20057;-77
2023/06/27 11:40:07;;;;;;;0.50;0.50;;;;;;;;;;4728329;30;20524;-75
2023/06/27 11:42:35;;;;;;;1.10;0.65;;;;;;;;;;4729494;30;20056;-77
2023/06/27 11:45:10;;;;;;;0.70;0.70;;;;;;;;;;4730563;30;20064;-75
2023/06/27 11:47:38;;;;;;;0.68;0.50;;;;;;;;;;4728252;30;20140;-77
2023/06/27 11:50:06;;;;;;;0.70;0.60;;;;;;;;;;4729101;30;20064;-77
2023/06/27 11:52:35;;;;;;;0.93;0.88;;;;;;;;;;4734043;30;20076;-76
2023/06/27 11:55:04;;;;;;;1.98;0.90;;;;;;;;;;4732975;30;20045;-77
2023/06/27 11:57:44;;;;;;;1.02;0.73;;;;;;;;;;4725817;30;20140;-79
2023/06/27 12:00:25;;;;;;;0.95;0.60;;;;;;;;;;4729567;30;20428;-77
2023/06/27 12:02:53;;;;;;;;;;;;;;;;;;4725898;30;20049;-78
2023/06/27 12:05:21;;;;;;;0.75;0.75;;;;;;;;;;4730700;30;19934;-77
2023/06/27 12:08:01;;;;;;;0.70;0.70;;;;;;;;;;4733097;30;20096;-77
2023/06/27 12:10:33;;;;;;;0.50;0.50;;;;;;;;;;4730389;30;20513;-77
2023/06/27 12:13:00;;;;;;;;;;;;;;;;;;4727634;30;20084;-77
2023/06/27 12:15:27;;;;;;;1.52;0.60;;;;;;;;;;4726439;30;19941;-79
2023/06/27 12:18:02;;;;;;;1.25;0.50;;;;;;;;;;4729851;30;20053;-79
2023/06/27 12:20:43;;;;;;;0.65;0.60;;;;;;;;;;4729092;30;20076;-78
2023/06/27 12:23:11;;;;;;;0.90;0.60;;;;;;;;;;4730403;30;20057;-79
2023/06/27 12:25:39;;;;;;;0.68;0.68;;;;;;;;;;4730931;30;20120;-79
2023/06/27 12:28:07;;;;;;;0.60;0.60;;;;;;;;;;4733868;30;20068;-79
2023/06/27 12:30:35;;;;;;;0.50;0.50;;;;;;;;;;4728569;30;20739;-78
2023/06/27 12:33:03;;;;;;;0.50;0.50;;;;;;;;;;4720073;30;20533;-79
2023/06/27 12:35:31;;;;;;;0.77;0.70;;;;;;;;;;4726350;30;20060;-79
2023/06/27 12:37:59;;;;;;;0.50;0.50;;;;;;;;;;4727133;30;20137;-78
2023/06/27 12:40:27;;;;;;;0.50;0.50;;;;;;;;;;4729297;30;20071;-78
2023/06/27 12:42:54;;;;;;;1.20;0.60;;;;;;;;;;4727023;30;20061;-78
2023/06/27 12:45:23;;;;;;;0.70;0.60;;;;;;;;;;4717549;30;20052;-78
2023/06/27 12:47:50;;;;;;;2.15;0.60;;;;;;;;;;4728617;30;20052;-79
2023/06/27 12:50:18;;;;;;;0.60;0.60;;;;;;;;;;4730152;30;20338;-79
2023/06/27 12:52:49;;;;;;;0.57;0.57;;;;;;;;;;4723498;30;20118;-78
2023/06/27 12:55:18;;;;;;;0.68;0.68;;;;;;;;;;4727876;30;20044;-79
2023/06/27 12:58:04;;;;;;;0.80;0.80;;;;;;;;;;4730348;30;20067;-78
2023/06/27 13:00:37;;;;;;;0.60;0.60;;;;;;;;;;4730829;30;20478;-78
2023/06/27 13:03:06;;;;;;;1.10;0.60;;;;;;;;;;4725616;30;20140;-78
2023/06/27 13:05:46;;;;;;;0.65;0.60;;;;;;;;;;4751890;24;20071;-88
2023/06/27 13:08:19;;;;;;;1.20;0.82;;;;;;;;;;4742735;30;20071;-83
2023/06/27 13:10:47;;;;;;;2.20;0.68;;;;;;;;;;4749443;30;20048;-84
2023/06/27 13:13:15;;;;;;;0.82;0.77;;;;;;;;;;4737958;30;20066;-85
2023/06/27 13:15:42;;;;;;;0.57;0.57;;;;;;;;;;4725575;30;20595;-85
2023/06/27 13:18:11;;;;;;;0.95;0.80;;;;;;;;;;4742056;30;20060;-85
2023/06/27 13:20:39;;;;;;;0.60;0.60;;;;;;;;;;4747118;30;20045;-85
2023/06/27 13:23:07;;;;;;;0.60;0.60;;;;;;;;;;4746940;30;20048;-88
2023/06/27 13:25:35;;;;;;;0.50;0.50;;;;;;;;;;4741669;30;20057;-85
2023/06/27 13:28:02;;;;;;;0.70;0.57;;;;;;;;;;4730020;30;20135;-85
2023/06/27 13:30:30;;;;;;;0.60;0.60;;;;;;;;;;4732453;30;20061;-86
2023/06/27 13:33:00;;;;;;;0.70;0.70;;;;;;;;;;4732020;30;20421;-86
2023/06/27 13:35:28;;;;;;;0.90;0.70;;;;;;;;;;4730527;30;20061;-85
2023/06/27 13:37:56;;;;;;;1.02;0.68;;;;;;;;;;4732928;30;20052;-85
2023/06/27 13:40:28;;;;;;;0.50;0.50;;;;;;;;;;4729891;30;20056;-86
2023/06/27 13:42:57;;;;;;;0.82;0.70;;;;;;;;;;4728140;30;20468;-85
2023/06/27 13:45:24;;;;;;;0.73;0.63;;;;;;;;;;4730706;30;20584;-85
2023/06/27 13:47:52;;;;;;;0.70;0.70;;;;;;;;;;4732784;30;20071;-83
2023/06/27 13:50:20;;;;;;;1.50;0.82;;;;;;;;;;4731836;30;20250;-85
2023/06/27 13:52:47;;;;;;;1.02;0.60;;;;;;;;;;4731478;30;20434;-85
2023/06/27 13:55:15;;;;;;;0.70;0.70;;;;;;;;;;4728715;30;20513;-86
2023/06/27 13:57:43;;;;;;;0.68;0.68;;;;;;;;;;4730015;30;20060;-88
2023/06/27 14:00:11;;;;;;;1.58;0.52;;;;;;;;;;4729847;30;20297;-86
2023/06/27 14:02:50;;;;;;;1.60;0.80;;;;;;;;;;4728621;30;20485;-90
2023/06/27 14:05:31;;;;;;;0.60;0.60;;;;;;;;;;4729181;30;20048;-90
2023/06/27 14:08:00;;;;;;;1.17;0.73;;;;;;;;;;4732097;30;20098;-90
2023/06/27 14:10:33;;;;;;;1.75;0.50;;;;;;;;;;4731855;30;20049;-90
2023/06/27 14:13:04;;;;;;;0.63;0.60;;;;;;;;;;4730002;30;20133;-88
2023/06/27 14:15:32;;;;;;;0.73;0.60;;;;;;;;;;4732248;30;20090;-85
2023/06/27 14:18:02;;;;;;;0.95;0.95;;;;;;;;;;4731808;30;20056;-85
2023/06/27 14:20:35;;;;;;;0.80;0.80;;;;;;;;;;4723965;30;20060;-86
2023/06/27 14:23:16;;;;;;;1.67;0.80;;;;;;;;;;4731025;30;20068;-85
2023/06/27 14:25:54;;;;;;;0.98;0.70;;;;;;;;;;4724360;30;20045;-84
2023/06/27 14:28:25;;;;;;;2.90;0.80;;;;;;;;;;4731611;30;20077;-85
2023/06/27 14:30:53;;;;;;;0.82;0.70;;;;;;;;;;4732265;30;20709;-87
2023/06/27 14:33:27;;;;;;;0.80;0.80;;;;;;;;;;4729261;30;20055;-88
2023/06/27 14:35:59;;;;;;;3.72;0.90;;;;;;;;;;4736176;30;20167;-87
2023/06/27 14:39:14;;;;;;;0.80;0.80;;;;;;;;;;4730997;30;20572;-86
2023/06/27 14:41:42;;;;;;;0.90;0.90;;;;;;;;;;4737092;30;20048;-85
2023/06/27 14:44:37;;;;;;;0.77;0.77;;;;;;;;;;4730535;30;20509;-89
2023/06/27 14:47:15;;;;;;;0.77;0.60;;;;;;;;;;4719741;30;20055;-87
2023/06/27 14:49:44;;;;;;;1.70;0.63;;;;;;;;;;4729815;30;20139;-88
2023/06/27 14:52:13;;;;;;;0.88;0.70;;;;;;;;;;4729142;30;20148;-86
2023/06/27 14:54:41;;;;;;;0.93;0.63;;;;;;;;;;4726784;30;20060;-88
2023/06/27 14:57:16;;;;;;;1.48;0.68;;;;;;;;;;4727806;30;20067;-89
2023/06/27 14:59:43;;;;;;;1.13;0.63;;;;;;;;;;4730982;30;20056;-86